createdAt,value
2018-09-06T00:00:03.054Z,1
2018-09-06T00:05:03.222Z,2
2018-09-06T00:10:02.963Z,0
2018-09-06T00:15:03.418Z,0
2018-09-06T00:20:02.962Z,0
2018-09-06T00:25:03.321Z,1
2018-09-06T00:30:02.683Z,0
2018-09-06T00:35:03.167Z,0
2018-09-06T00:40:02.587Z,0
2018-09-06T00:45:02.805Z,2
2018-09-06T00:50:03.296Z,0
2018-09-06T00:55:02.676Z,0
2018-09-06T01:00:03.100Z,0
2018-09-06T01:05:02.802Z,0
2018-09-06T01:10:03.341Z,0
2018-09-06T01:15:02.766Z,0
2018-09-06T01:20:07.110Z,0
2018-09-06T01:25:03.473Z,1
2018-09-06T01:30:02.962Z,0
2018-09-06T01:35:03.397Z,1
2018-09-06T01:40:02.853Z,0
2018-09-06T01:45:03.287Z,1
2018-09-06T01:50:02.709Z,0
2018-09-06T01:55:03.181Z,1
2018-09-06T02:00:02.582Z,0
2018-09-06T02:05:03.159Z,0
2018-09-06T02:10:02.624Z,0
2018-09-06T02:15:03.013Z,0
2018-09-06T02:20:03.528Z,0
2018-09-06T02:25:02.978Z,0
2018-09-06T02:30:03.401Z,2
2018-09-06T02:35:02.806Z,0
2018-09-06T02:40:03.287Z,0
2018-09-06T02:45:02.640Z,1
2018-09-06T02:50:03.052Z,1
2018-09-06T02:55:03.013Z,4
2018-09-06T03:00:03.804Z,2
2018-09-06T03:05:03.254Z,1
2018-09-06T03:10:02.695Z,2
2018-09-06T03:15:03.147Z,0
2018-09-06T03:20:02.616Z,0
2018-09-06T03:25:03.027Z,3
2018-09-06T03:30:03.450Z,0
2018-09-06T03:35:02.850Z,0
2018-09-06T03:40:03.300Z,0
2018-09-06T03:45:02.640Z,0
2018-09-06T03:50:03.052Z,0
2018-09-06T03:55:02.506Z,0
2018-09-06T04:00:02.903Z,0
2018-09-06T04:05:03.365Z,0
2018-09-06T04:10:02.876Z,0
2018-09-06T04:15:03.452Z,0
2018-09-06T04:20:02.822Z,0
2018-09-06T04:25:03.189Z,0
2018-09-06T04:30:02.705Z,0
2018-09-06T04:35:03.130Z,0
2018-09-06T04:40:02.595Z,0
2018-09-06T04:45:03.034Z,0
2018-09-06T04:50:03.484Z,0
2018-09-06T04:55:02.877Z,0
2018-09-06T05:00:03.295Z,0
2018-09-06T05:05:02.712Z,0
2018-09-06T05:10:03.259Z,0
2018-09-06T05:15:02.636Z,0
2018-09-06T05:20:03.386Z,0
2018-09-06T05:25:02.833Z,0
2018-09-06T05:30:03.272Z,0
2018-09-06T05:35:02.797Z,0
2018-09-06T05:40:03.451Z,0
2018-09-06T05:45:02.902Z,0
2018-09-06T05:50:03.350Z,0
2018-09-06T05:55:02.707Z,0
2018-09-06T06:00:03.693Z,0
2018-09-06T06:05:03.467Z,0
2018-09-06T06:10:02.907Z,0
2018-09-06T06:15:03.358Z,0
2018-09-06T06:20:03.269Z,0
2018-09-06T06:25:03.058Z,0
2018-09-06T06:30:02.619Z,0
2018-09-06T06:35:03.181Z,0
2018-09-06T06:40:02.799Z,0
2018-09-06T06:45:03.388Z,0
2018-09-06T06:50:02.954Z,0
2018-09-06T06:55:03.500Z,0
2018-09-06T07:00:03.402Z,0
2018-09-06T07:05:03.039Z,0
2018-09-06T07:10:02.635Z,0
2018-09-06T07:15:03.257Z,1
2018-09-06T07:20:02.808Z,1
2018-09-06T07:25:03.557Z,0
2018-09-06T07:30:03.538Z,1
2018-09-06T07:35:03.143Z,0
2018-09-06T07:40:02.690Z,0
2018-09-06T07:45:03.312Z,0
2018-09-06T07:50:03.110Z,0
2018-09-06T07:55:02.986Z,0
2018-09-06T08:00:03.609Z,0
2018-09-06T08:05:03.310Z,2
2018-09-06T08:10:02.981Z,0
2018-09-06T08:15:02.617Z,0
2018-09-06T08:20:03.510Z,0
2018-09-06T08:25:03.020Z,0
2018-09-06T08:30:02.665Z,0
2018-09-06T08:35:03.314Z,0
2018-09-06T08:40:02.872Z,0
2018-09-06T08:45:03.505Z,0
2018-09-06T08:50:03.037Z,0
2018-09-06T08:55:02.720Z,0
2018-09-06T09:00:03.417Z,0
2018-09-06T09:05:02.985Z,0
2018-09-06T09:10:02.653Z,0
2018-09-06T09:15:03.258Z,0
2018-09-06T09:20:02.824Z,0
2018-09-06T09:25:03.385Z,2
2018-09-06T09:30:03.245Z,2
2018-09-06T09:35:02.824Z,0
2018-09-06T09:40:03.425Z,2
2018-09-06T09:45:02.976Z,0
2018-09-06T09:50:02.573Z,0
2018-09-06T09:55:03.173Z,0
2018-09-06T10:00:02.708Z,0
2018-09-06T10:05:03.276Z,0
2018-09-06T10:10:02.978Z,0
2018-09-06T10:15:02.727Z,0
2018-09-06T10:20:03.427Z,0
2018-09-06T10:25:02.996Z,0
2018-09-06T10:30:02.831Z,0
2018-09-06T10:35:03.453Z,0
2018-09-06T10:40:03.443Z,0
2018-09-06T10:45:03.314Z,0
2018-09-06T10:50:02.895Z,0
2018-09-06T10:55:03.474Z,0
2018-09-06T11:00:03.132Z,0
2018-09-06T11:05:02.725Z,0
2018-09-06T11:10:03.483Z,0
2018-09-06T11:15:03.369Z,0
2018-09-06T11:20:03.538Z,0
2018-09-06T11:25:03.203Z,0
2018-09-06T11:30:02.787Z,0
2018-09-06T11:35:03.438Z,0
2018-09-06T11:40:03.443Z,0
2018-09-06T11:45:03.363Z,0
2018-09-06T11:50:03.004Z,0
2018-09-06T11:55:02.617Z,0
2018-09-06T12:00:03.142Z,0
2018-09-06T12:05:02.738Z,0
2018-09-06T12:10:03.312Z,0
2018-09-06T12:15:02.849Z,0
2018-09-06T12:20:03.497Z,2
2018-09-06T12:25:03.022Z,3
2018-09-06T12:30:02.545Z,2
2018-09-06T12:35:03.169Z,2
2018-09-06T12:40:02.861Z,0
2018-09-06T12:45:03.535Z,2
2018-09-06T12:50:03.036Z,0
2018-09-06T12:55:02.594Z,0
2018-09-06T13:00:03.158Z,0
2018-09-06T13:05:02.753Z,0
2018-09-06T13:10:03.321Z,0
2018-09-06T13:15:02.920Z,0
2018-09-06T13:20:03.541Z,2
2018-09-06T13:25:03.135Z,0
2018-09-06T13:30:02.756Z,0
2018-09-06T13:35:03.449Z,0
2018-09-06T13:40:03.226Z,0
2018-09-06T13:45:02.759Z,0
2018-09-06T13:50:03.326Z,0
2018-09-06T13:55:02.855Z,3
2018-09-06T14:00:03.776Z,2
2018-09-06T14:05:02.895Z,4
2018-09-06T14:10:02.680Z,6
2018-09-06T14:15:03.206Z,5
2018-09-06T14:20:02.749Z,6
2018-09-06T14:25:03.371Z,6
2018-09-06T14:30:02.923Z,5
2018-09-06T14:35:02.638Z,2
2018-09-06T14:40:03.332Z,4
2018-09-06T14:45:02.993Z,0
2018-09-06T14:50:02.663Z,0
2018-09-06T14:55:03.326Z,1
2018-09-06T15:00:03.365Z,0
2018-09-06T15:05:02.916Z,0
2018-09-06T15:10:03.585Z,0
2018-09-06T15:15:03.287Z,0
2018-09-06T15:20:03.192Z,0
2018-09-06T15:25:02.952Z,1
2018-09-06T15:30:02.560Z,0
2018-09-06T15:35:03.188Z,3
2018-09-06T15:40:02.858Z,2
2018-09-06T15:45:03.572Z,0
2018-09-06T15:50:03.288Z,0
2018-09-06T15:55:02.915Z,0
2018-09-06T16:00:03.622Z,2
2018-09-06T16:05:03.139Z,2
2018-09-06T16:10:02.856Z,0
2018-09-06T16:15:03.429Z,3
2018-09-06T16:20:03.003Z,2
2018-09-06T16:25:02.648Z,1
2018-09-06T16:30:03.402Z,2
2018-09-06T16:35:03.062Z,2
2018-09-06T16:40:02.812Z,0
2018-09-06T16:45:03.478Z,1
2018-09-06T16:50:03.116Z,1
2018-09-06T16:55:02.728Z,1
2018-09-06T17:00:03.404Z,7
2018-09-06T17:05:03.394Z,7
2018-09-06T17:10:03.057Z,8
2018-09-06T17:15:02.649Z,9
2018-09-06T17:20:03.253Z,5
2018-09-06T17:25:02.843Z,4
2018-09-06T17:30:03.409Z,4
2018-09-06T17:35:02.989Z,8
2018-09-06T17:40:02.644Z,9
2018-09-06T17:45:03.214Z,6
2018-09-06T17:50:02.797Z,6
2018-09-06T17:55:03.385Z,6
2018-09-06T18:00:02.904Z,9
2018-09-06T18:05:02.547Z,6
2018-09-06T18:10:03.171Z,3
2018-09-06T18:15:02.781Z,5
2018-09-06T18:20:03.333Z,3
2018-09-06T18:25:02.952Z,1
2018-09-06T18:30:02.622Z,4
2018-09-06T18:35:03.200Z,5
2018-09-06T18:40:02.785Z,7
2018-09-06T18:45:03.316Z,2
2018-09-06T18:50:02.960Z,2
2018-09-06T18:55:02.607Z,4
2018-09-06T19:00:03.107Z,1
2018-09-06T19:05:02.618Z,1
2018-09-06T19:10:03.244Z,2
2018-09-06T19:15:02.848Z,1
2018-09-06T19:20:03.501Z,2
2018-09-06T19:25:03.036Z,2
2018-09-06T19:30:02.742Z,2
2018-09-06T19:35:03.288Z,2
2018-09-06T19:40:03.045Z,2
2018-09-06T19:45:03.034Z,2
2018-09-06T19:50:02.722Z,3
2018-09-06T19:55:03.188Z,1
2018-09-06T20:00:03.215Z,2
2018-09-06T20:05:03.125Z,1
2018-09-06T20:10:02.784Z,0
2018-09-06T20:15:03.403Z,0
2018-09-06T20:20:02.999Z,1
2018-09-06T20:25:02.623Z,0
2018-09-06T20:30:03.261Z,0
2018-09-06T20:35:02.881Z,1
2018-09-06T20:40:02.577Z,0
2018-09-06T20:45:03.270Z,0
2018-09-06T20:50:02.822Z,0
2018-09-06T20:55:03.472Z,2
2018-09-06T21:00:03.087Z,0
2018-09-06T21:05:02.654Z,0
2018-09-06T21:10:03.286Z,0
2018-09-06T21:15:02.800Z,0
2018-09-06T21:20:03.438Z,0
2018-09-06T21:25:03.027Z,1
2018-09-06T21:30:02.997Z,1
2018-09-06T21:35:02.937Z,0
2018-09-06T21:40:02.885Z,0
2018-09-06T21:45:02.725Z,1
2018-09-06T21:50:03.412Z,0
2018-09-06T21:55:03.444Z,2
2018-09-06T22:00:03.485Z,2
2018-09-06T22:05:02.793Z,0
2018-09-06T22:10:03.457Z,0
2018-09-06T22:15:03.105Z,0
2018-09-06T22:20:02.681Z,2
2018-09-06T22:25:03.296Z,0
2018-09-06T22:30:02.796Z,0
2018-09-06T22:35:03.378Z,1
2018-09-06T22:40:02.935Z,0
2018-09-06T22:45:03.481Z,0
2018-09-06T22:50:03.012Z,0
2018-09-06T22:55:02.595Z,0
2018-09-06T23:00:03.158Z,2
2018-09-06T23:05:03.269Z,0
2018-09-06T23:10:03.063Z,2
2018-09-06T23:15:02.865Z,2
2018-09-06T23:20:03.412Z,0
2018-09-06T23:25:02.943Z,2
2018-09-06T23:30:03.490Z,2
2018-09-06T23:35:03.132Z,2
2018-09-06T23:40:02.828Z,0
2018-09-06T23:45:03.468Z,1
2018-09-06T23:50:03.034Z,2
2018-09-06T23:55:02.602Z,0
